Station Historical Data
Daily Summary for May 26, 2017 Units:  English    Metric   Both
Next Day »
Daily Weekly Monthly Yearly Custom
  High: Low: Average:
Temperature: 63.5 °F 46.7 °F 54.7 °F
Dew Point: 52.6 °F 42.7 °F 48.2 °F
Humidity: 88% 67% 79%
Wind Speed: 7.0mph 0.0mph 0.5mph
Wind Gust: 11.0mph - -
Wind- - WSW
Pressure: 30.03 in 29.83 in -
Precipitation: 0.00 in    
Historical Graphs
 
 
Tabular Data for May 26, 2017
Time Temperature Dew Point Pressure Wind Wind Speed Wind Gust Humidity Rainfall Rate (Hourly) solar Conditions
00:04 51.2 °F 45.9 °F 29.83 in Calm     82% 0.00 in 0.00 W/m2
00:09 51.1 °F 45.8 °F 29.84 in Calm     82% 0.00 in 0.00 W/m2
00:10 51.1 °F 45.8 °F 29.84 in Calm     82% 0.00 in 0.00 W/m2
00:15 50.9 °F 45.6 °F 29.84 in Calm     82% 0.00 in 0.00 W/m2
00:20 50.8 °F 45.5 °F 29.84 in Calm     82% 0.00 in 0.00 W/m2
00:25 50.7 °F 45.4 °F 29.84 in Calm     82% 0.00 in 0.00 W/m2
00:30 50.5 °F 45.2 °F 29.84 in Calm     82% 0.00 in 0.00 W/m2
00:35 50.5 °F 45.2 °F 29.84 in Calm     82% 0.00 in 0.00 W/m2
00:40 50.3 °F 45.0 °F 29.84 in Calm     82% 0.00 in 0.00 W/m2
00:45 50.1 °F 44.8 °F 29.84 in Calm     82% 0.00 in 0.00 W/m2
00:50 50.0 °F 44.7 °F 29.83 in Calm     82% 0.00 in 0.00 W/m2
00:55 49.9 °F 45.0 °F 29.84 in Calm     83% 0.00 in 0.00 W/m2
01:05 49.7 °F 44.8 °F 29.84 in Calm     83% 0.00 in 0.00 W/m2
01:10 49.6 °F 44.7 °F 29.84 in Calm     83% 0.00 in 0.00 W/m2
01:15 49.6 °F 44.7 °F 29.84 in Calm     83% 0.00 in 0.00 W/m2
01:20 49.4 °F 44.5 °F 29.84 in Calm     83% 0.00 in 0.00 W/m2
01:25 49.4 °F 44.8 °F 29.84 in Calm     84% 0.00 in 0.00 W/m2
01:30 49.3 °F 44.7 °F 29.84 in Calm     84% 0.00 in 0.00 W/m2
01:35 49.3 °F 44.7 °F 29.84 in Calm     84% 0.00 in 0.00 W/m2
01:40 49.2 °F 44.6 °F 29.84 in Calm     84% 0.00 in 0.00 W/m2
01:46 49.2 °F 44.6 °F 29.84 in Calm     84% 0.00 in 0.00 W/m2
01:51 49.1 °F 44.5 °F 29.84 in Calm     84% 0.00 in 0.00 W/m2
01:56 49.1 °F 44.5 °F 29.84 in Calm     84% 0.00 in 0.00 W/m2
02:01 49.0 °F 44.4 °F 29.84 in Calm     84% 0.00 in 0.00 W/m2
02:06 49.0 °F 44.4 °F 29.84 in Calm     84% 0.00 in 0.00 W/m2
02:11 49.0 °F 44.4 °F 29.84 in Calm     84% 0.00 in 0.00 W/m2
02:16 49.0 °F 44.4 °F 29.84 in Calm     84% 0.00 in 0.00 W/m2
02:21 48.9 °F 44.3 °F 29.84 in Calm     84% 0.00 in 0.00 W/m2
02:26 48.9 °F 44.3 °F 29.84 in Calm     84% 0.00 in 0.00 W/m2
02:31 48.9 °F 44.3 °F 29.84 in Calm     84% 0.00 in 0.00 W/m2
02:36 48.9 °F 44.3 °F 29.84 in Calm     84% 0.00 in 0.00 W/m2
02:41 48.9 °F 44.6 °F 29.84 in Calm     85% 0.00 in 0.00 W/m2
02:46 48.9 °F 44.6 °F 29.84 in Calm     85% 0.00 in 0.00 W/m2
02:51 48.8 °F 44.5 °F 29.83 in Calm     85% 0.00 in 0.00 W/m2
02:56 48.8 °F 44.5 °F 29.84 in Calm     85% 0.00 in 0.00 W/m2
03:01 48.8 °F 44.2 °F 29.84 in Calm     84% 0.00 in 0.00 W/m2
03:06 48.7 °F 44.4 °F 29.84 in Calm     85% 0.00 in 0.00 W/m2
03:11 48.7 °F 44.4 °F 29.84 in Calm     85% 0.00 in 0.00 W/m2
03:16 48.7 °F 44.4 °F 29.84 in Calm     85% 0.00 in 0.00 W/m2
03:21 48.6 °F 44.3 °F 29.84 in Calm     85% 0.00 in 0.00 W/m2
03:26 48.5 °F 44.2 °F 29.84 in Calm     85% 0.00 in 0.00 W/m2
03:31 48.5 °F 44.2 °F 29.84 in Calm     85% 0.00 in 0.00 W/m2
03:36 48.5 °F 44.2 °F 29.84 in Calm     85% 0.00 in 0.00 W/m2
03:41 48.4 °F 44.1 °F 29.84 in Calm     85% 0.00 in 0.00 W/m2
03:46 48.4 °F 44.1 °F 29.84 in Calm     85% 0.00 in 0.00 W/m2
03:51 48.3 °F 44.0 °F 29.84 in Calm     85% 0.00 in 0.00 W/m2
03:56 48.2 °F 43.9 °F 29.84 in Calm     85% 0.00 in 0.00 W/m2
04:01 48.1 °F 43.8 °F 29.85 in Calm     85% 0.00 in 0.00 W/m2
04:06 48.0 °F 43.7 °F 29.85 in Calm     85% 0.00 in 0.00 W/m2
04:11 47.9 °F 43.6 °F 29.85 in Calm     85% 0.00 in 0.00 W/m2
04:16 47.7 °F 43.4 °F 29.85 in Calm     85% 0.00 in 0.00 W/m2
04:21 47.5 °F 43.2 °F 29.85 in Calm     85% 0.00 in 0.00 W/m2
04:26 47.4 °F 43.4 °F 29.85 in Calm     86% 0.00 in 0.00 W/m2
04:31 47.3 °F 43.3 °F 29.86 in Calm     86% 0.00 in 0.00 W/m2
04:36 47.1 °F 43.1 °F 29.86 in Calm     86% 0.00 in 0.00 W/m2
04:41 46.9 °F 42.9 °F 29.86 in Calm     86% 0.00 in 0.00 W/m2
04:46 46.9 °F 42.9 °F 29.86 in Calm     86% 0.00 in 0.00 W/m2
04:51 46.8 °F 42.8 °F 29.85 in Calm     86% 0.00 in 0.00 W/m2
04:56 46.8 °F 42.8 °F 29.86 in Calm     86% 0.00 in 0.00 W/m2
05:01 46.7 °F 42.7 °F 29.86 in Calm     86% 0.00 in 0.00 W/m2
05:06 46.7 °F 42.7 °F 29.86 in Calm     86% 0.00 in 0.00 W/m2
05:11 46.7 °F 42.7 °F 29.86 in Calm     86% 0.00 in 0.00 W/m2
05:16 46.7 °F 42.7 °F 29.86 in Calm     86% 0.00 in 0.00 W/m2
05:21 46.8 °F 43.1 °F 29.86 in Calm     87% 0.00 in 0.00 W/m2
05:26 46.8 °F 43.1 °F 29.86 in Calm     87% 0.00 in 0.00 W/m2
05:31 46.7 °F 43.0 °F 29.87 in Calm     87% 0.00 in 0.00 W/m2
05:36 46.7 °F 43.0 °F 29.87 in Calm     87% 0.00 in 0.00 W/m2
05:41 46.8 °F 43.1 °F 29.87 in Calm     87% 0.00 in 5.00 W/m2
05:46 46.8 °F 43.1 °F 29.87 in Calm     87% 0.00 in 7.00 W/m2
05:51 46.9 °F 43.2 °F 29.87 in Calm     87% 0.00 in 9.00 W/m2
05:52 47.0 °F 43.3 °F 29.87 in Calm     87% 0.00 in 9.00 W/m2
05:57 47.0 °F 43.3 °F 29.87 in Calm     87% 0.00 in 12.00 W/m2
06:02 47.0 °F 43.3 °F 29.87 in Calm     87% 0.00 in 16.00 W/m2
06:07 47.1 °F 43.4 °F 29.87 in Calm     87% 0.00 in 19.00 W/m2
06:12 47.2 °F 43.5 °F 29.87 in Calm     87% 0.00 in 26.00 W/m2
06:17 47.3 °F 43.9 °F 29.87 in Calm     88% 0.00 in 35.00 W/m2
06:22 47.4 °F 44.0 °F 29.88 in Calm     88% 0.00 in 46.00 W/m2
06:27 47.4 °F 44.0 °F 29.88 in Calm     88% 0.00 in 58.00 W/m2
06:32 47.4 °F 44.0 °F 29.88 in Calm     88% 0.00 in 69.00 W/m2
06:38 47.5 °F 44.1 °F 29.88 in Calm     88% 0.00 in 83.00 W/m2
06:43 47.5 °F 44.1 °F 29.88 in Calm     88% 0.00 in 97.00 W/m2
06:48 47.6 °F 44.2 °F 29.88 in Calm     88% 0.00 in 113.00 W/m2
06:53 47.7 °F 44.3 °F 29.89 in Calm     88% 0.00 in 128.00 W/m2
06:58 47.8 °F 44.4 °F 29.89 in Calm     88% 0.00 in 146.00 W/m2
07:03 48.0 °F 44.6 °F 29.89 in Calm     88% 0.00 in 167.00 W/m2
07:08 48.0 °F 44.6 °F 29.89 in Calm     88% 0.00 in 186.00 W/m2
07:13 48.1 °F 44.7 °F 29.89 in Calm     88% 0.00 in 206.00 W/m2
07:18 48.2 °F 44.8 °F 29.89 in Calm     88% 0.00 in 225.00 W/m2
07:23 48.3 °F 44.9 °F 29.90 in Calm     88% 0.00 in 243.00 W/m2
07:28 48.4 °F 45.0 °F 29.90 in Calm     88% 0.00 in 262.00 W/m2
07:33 48.5 °F 45.1 °F 29.90 in Calm     88% 0.00 in 279.00 W/m2
07:38 48.6 °F 45.2 °F 29.90 in Calm     88% 0.00 in 295.00 W/m2
07:43 48.8 °F 45.4 °F 29.90 in Calm     88% 0.00 in 313.00 W/m2
07:48 48.9 °F 45.5 °F 29.90 in Calm     88% 0.00 in 332.00 W/m2
07:53 49.0 °F 45.6 °F 29.90 in Calm     88% 0.00 in 348.00 W/m2
07:56 49.1 °F 45.7 °F 29.91 in Calm     88% 0.00 in 359.00 W/m2
08:01 49.2 °F 45.8 °F 29.91 in Calm     88% 0.00 in 376.00 W/m2
08:06 49.2 °F 45.8 °F 29.91 in Calm     88% 0.00 in 388.00 W/m2
08:11 49.4 °F 46.0 °F 29.91 in Calm     88% 0.00 in 406.00 W/m2
08:16 49.6 °F 46.2 °F 29.91 in Calm     88% 0.00 in 420.00 W/m2
08:21 49.6 °F 46.2 °F 29.91 in Calm     88% 0.00 in 438.00 W/m2
08:27 49.8 °F 46.4 °F 29.91 in Calm     88% 0.00 in 454.00 W/m2
08:32 50.0 °F 46.3 °F 29.92 in Calm     87% 0.00 in 471.00 W/m2
08:37 50.1 °F 46.4 °F 29.92 in Calm     87% 0.00 in 483.00 W/m2
08:42 50.4 °F 46.7 °F 29.92 in Calm     87% 0.00 in 510.00 W/m2
08:47 50.6 °F 46.9 °F 29.92 in Calm     87% 0.00 in 513.00 W/m2
08:52 50.7 °F 47.0 °F 29.92 in Calm     87% 0.00 in 533.00 W/m2
08:57 51.0 °F 47.0 °F 29.93 in Calm     86% 0.00 in 548.00 W/m2
09:02 51.2 °F 47.2 °F 29.93 in Calm     86% 0.00 in 561.00 W/m2
09:07 51.3 °F 47.3 °F 29.93 in Calm     86% 0.00 in 575.00 W/m2
09:13 51.5 °F 47.5 °F 29.93 in Calm     86% 0.00 in 591.00 W/m2
09:18 51.7 °F 47.3 °F 29.93 in Calm     85% 0.00 in 610.00 W/m2
09:23 51.9 °F 47.5 °F 29.93 in Calm     85% 0.00 in 621.00 W/m2
09:28 52.0 °F 47.6 °F 29.93 in Calm     85% 0.00 in 631.00 W/m2
09:33 52.2 °F 47.8 °F 29.93 in Calm     85% 0.00 in 643.00 W/m2
09:38 52.4 °F 47.7 °F 29.94 in Calm     84% 0.00 in 657.00 W/m2
09:43 52.4 °F 47.7 °F 29.94 in Calm     84% 0.00 in 673.00 W/m2
09:48 52.5 °F 47.8 °F 29.94 in Calm     84% 0.00 in 686.00 W/m2
09:53 52.5 °F 47.5 °F 29.94 in Calm   1.0 mph 83% 0.00 in 696.00 W/m2
09:58 52.6 °F 47.6 °F 29.94 in East 1.0 mph 2.0 mph 83% 0.00 in 710.00 W/m2
10:03 52.7 °F 47.7 °F 29.94 in ESE 1.0 mph 2.0 mph 83% 0.00 in 726.00 W/m2
10:08 52.8 °F 47.8 °F 29.94 in ESE 1.0 mph 4.0 mph 83% 0.00 in 738.00 W/m2
10:13 53.0 °F 48.0 °F 29.94 in Calm   2.0 mph 83% 0.00 in 751.00 W/m2
10:18 53.2 °F 48.2 °F 29.94 in SE 4.0 mph 5.0 mph 83% 0.00 in 761.00 W/m2
10:23 53.3 °F 48.0 °F 29.95 in Calm   4.0 mph 82% 0.00 in 772.00 W/m2
10:28 53.5 °F 48.2 °F 29.95 in Calm   4.0 mph 82% 0.00 in 780.00 W/m2
10:33 53.7 °F 48.0 °F 29.95 in Calm   2.0 mph 81% 0.00 in 789.00 W/m2
10:38 53.8 °F 48.1 °F 29.95 in SSE 1.0 mph 2.0 mph 81% 0.00 in 803.00 W/m2
10:43 53.9 °F 48.2 °F 29.95 in SSE 2.0 mph 4.0 mph 81% 0.00 in 814.00 W/m2
10:48 54.1 °F 48.4 °F 29.95 in South 1.0 mph 2.0 mph 81% 0.00 in 824.00 W/m2
10:53 54.4 °F 48.7 °F 29.95 in Calm   2.0 mph 81% 0.00 in 835.00 W/m2
10:58 54.7 °F 48.7 °F 29.95 in Calm   2.0 mph 80% 0.00 in 842.00 W/m2
10:59 54.7 °F 48.7 °F 29.95 in Calm   2.0 mph 80% 0.00 in 842.00 W/m2
11:04 55.0 °F 49.0 °F 29.95 in South 1.0 mph 2.0 mph 80% 0.00 in 851.00 W/m2
11:09 55.3 °F 48.9 °F 29.95 in Calm   2.0 mph 79% 0.00 in 860.00 W/m2
11:14 55.7 °F 49.3 °F 29.95 in SSW 2.0 mph 3.0 mph 79% 0.00 in 868.00 W/m2
11:19 56.0 °F 49.2 °F 29.95 in SSW 2.0 mph 3.0 mph 78% 0.00 in 874.00 W/m2
11:24 56.2 °F 49.4 °F 29.96 in SW 1.0 mph 3.0 mph 78% 0.00 in 877.00 W/m2
11:29 56.5 °F 49.4 °F 29.96 in Calm   1.0 mph 77% 0.00 in 888.00 W/m2
11:34 56.8 °F 49.3 °F 29.96 in SW 3.0 mph 4.0 mph 76% 0.00 in 895.00 W/m2
11:39 56.9 °F 49.4 °F 29.96 in WSW 1.0 mph 4.0 mph 76% 0.00 in 900.00 W/m2
11:40 57.0 °F 49.9 °F 29.96 in WSW 2.0 mph 4.0 mph 77% 0.00 in 902.00 W/m2
11:45 57.3 °F 50.2 °F 29.96 in Calm   4.0 mph 77% 0.00 in 909.00 W/m2
11:50 57.6 °F 49.8 °F 29.96 in Calm   4.0 mph 75% 0.00 in 912.00 W/m2
11:55 57.9 °F 50.4 °F 29.96 in WSW 1.0 mph 4.0 mph 76% 0.00 in 916.00 W/m2
12:00 58.1 °F 49.9 °F 29.96 in WSW 2.0 mph 6.0 mph 74% 0.00 in 923.00 W/m2
12:05 58.4 °F 50.5 °F 29.96 in SW 1.0 mph 6.0 mph 75% 0.00 in 926.00 W/m2
12:10 58.8 °F 50.9 °F 29.96 in WSW 2.0 mph 5.0 mph 75% 0.00 in 930.00 W/m2
12:15 59.2 °F 50.6 °F 29.96 in WSW 1.0 mph 5.0 mph 73% 0.00 in 935.00 W/m2
12:20 59.7 °F 51.0 °F 29.96 in WSW 6.0 mph 6.0 mph 73% 0.00 in 933.00 W/m2
12:25 60.2 °F 51.2 °F 29.97 in WSW 2.0 mph 6.0 mph 72% 0.00 in 937.00 W/m2
12:30 60.7 °F 51.6 °F 29.97 in WSW 1.0 mph 7.0 mph 72% 0.00 in 939.00 W/m2
12:35 60.8 °F 51.0 °F 29.97 in Calm   11.0 mph 70% 0.00 in 942.00 W/m2
12:40 61.0 °F 51.5 °F 29.97 in West 2.0 mph 8.0 mph 71% 0.00 in 949.00 W/m2
12:41 61.1 °F 51.6 °F 29.97 in West 1.0 mph 5.0 mph 71% 0.00 in 946.00 W/m2
12:46 60.9 °F 51.1 °F 29.97 in West 3.0 mph 3.0 mph 70% 0.00 in 949.00 W/m2
12:51 61.0 °F 51.2 °F 29.97 in SW 5.0 mph 9.0 mph 70% 0.00 in 940.00 W/m2
12:56 61.1 °F 51.6 °F 29.97 in SW 1.0 mph 1.0 mph 71% 0.00 in 947.00 W/m2
13:01 61.4 °F 51.2 °F 29.97 in Calm     69% 0.00 in 944.00 W/m2
13:06 61.4 °F 51.2 °F 29.97 in Calm     69% 0.00 in 935.00 W/m2
13:11 61.2 °F 50.6 °F 29.97 in West 3.0 mph 4.0 mph 68% 0.00 in 942.00 W/m2
13:16 61.2 °F 51.0 °F 29.97 in Calm     69% 0.00 in 946.00 W/m2
13:21 61.2 °F 51.7 °F 29.97 in West 4.0 mph 5.0 mph 71% 0.00 in 949.00 W/m2
13:26 61.6 °F 51.7 °F 29.98 in West 4.0 mph 4.0 mph 70% 0.00 in 946.00 W/m2
13:41 62.9 °F 51.8 °F 29.98 in Calm   2.0 mph 67% 0.00 in 1002.00 W/m2
13:46 63.1 °F 52.0 °F 29.98 in Calm   3.0 mph 67% 0.00 in 441.00 W/m2
13:51 63.2 °F 52.1 °F 29.98 in WSW 4.0 mph 5.0 mph 67% 0.00 in 1014.00 W/m2
13:56 63.5 °F 52.4 °F 29.98 in Calm   3.0 mph 67% 0.00 in 330.00 W/m2
14:06 63.2 °F 52.1 °F 29.98 in SW 1.0 mph 4.0 mph 67% 0.00 in 343.00 W/m2
14:11 63.0 °F 52.3 °F 29.98 in Calm     68% 0.00 in 1074.00 W/m2
14:16 62.6 °F 51.5 °F 29.98 in West 1.0 mph 3.0 mph 67% 0.00 in 1134.00 W/m2
14:21 62.5 °F 51.8 °F 29.98 in Calm   4.0 mph 68% 0.00 in 345.00 W/m2
14:26 62.4 °F 52.1 °F 29.98 in SW 3.0 mph 6.0 mph 69% 0.00 in 1116.00 W/m2
14:31 62.4 °F 52.1 °F 29.98 in Calm   7.0 mph 69% 0.00 in 960.00 W/m2
14:36 62.2 °F 51.9 °F 29.98 in Calm   6.0 mph 69% 0.00 in 295.00 W/m2
14:41 61.9 °F 52.0 °F 29.98 in Calm   2.0 mph 70% 0.00 in 338.00 W/m2
14:46 61.7 °F 51.8 °F 29.98 in WNW 2.0 mph 2.0 mph 70% 0.00 in 390.00 W/m2
14:51 61.8 °F 52.3 °F 29.98 in Calm   7.0 mph 71% 0.00 in 1011.00 W/m2
14:56 62.1 °F 52.2 °F 29.98 in WNW 2.0 mph 7.0 mph 70% 0.00 in 1042.00 W/m2
15:01 62.4 °F 52.1 °F 29.98 in West 1.0 mph 2.0 mph 69% 0.00 in 394.00 W/m2
15:06 62.5 °F 52.2 °F 29.98 in Calm   5.0 mph 69% 0.00 in 315.00 W/m2
15:11 62.6 °F 51.9 °F 29.98 in West 2.0 mph 5.0 mph 68% 0.00 in 374.00 W/m2
15:16 62.5 °F 52.2 °F 29.98 in SW 4.0 mph 8.0 mph 69% 0.00 in 1032.00 W/m2
15:21 62.6 °F 51.9 °F 29.98 in West 1.0 mph 4.0 mph 68% 0.00 in 338.00 W/m2
15:26 62.3 °F 51.6 °F 29.98 in West 2.0 mph 5.0 mph 68% 0.00 in 350.00 W/m2
15:32 62.1 °F 51.8 °F 29.98 in Calm   7.0 mph 69% 0.00 in 436.00 W/m2
15:37 62.0 °F 51.7 °F 29.98 in Calm   3.0 mph 69% 0.00 in 360.00 W/m2
15:42 61.9 °F 51.6 °F 29.98 in West 4.0 mph 5.0 mph 69% 0.00 in 387.00 W/m2
15:47 61.8 °F 51.5 °F 29.98 in Calm   3.0 mph 69% 0.00 in 431.00 W/m2
15:52 61.8 °F 52.3 °F 29.98 in WSW 1.0 mph 4.0 mph 71% 0.00 in 346.00 W/m2
15:57 62.0 °F 52.1 °F 29.98 in Calm   4.0 mph 70% 0.00 in 510.00 W/m2
16:02 62.2 °F 51.9 °F 29.99 in WNW 5.0 mph 8.0 mph 69% 0.00 in 893.00 W/m2
16:07 62.3 °F 52.0 °F 29.99 in West 5.0 mph 7.0 mph 69% 0.00 in 835.00 W/m2
16:12 62.4 °F 52.1 °F 29.99 in West 1.0 mph 3.0 mph 69% 0.00 in 508.00 W/m2
16:17 62.5 °F 52.2 °F 29.99 in Calm   3.0 mph 69% 0.00 in 772.00 W/m2
16:22 62.7 °F 52.4 °F 29.99 in WSW 4.0 mph 8.0 mph 69% 0.00 in 710.00 W/m2
16:27 62.9 °F 52.2 °F 29.99 in WSW 5.0 mph 6.0 mph 68% 0.00 in 698.00 W/m2
16:32 63.0 °F 51.9 °F 29.99 in West 2.0 mph 4.0 mph 67% 0.00 in 659.00 W/m2
16:37 62.9 °F 52.2 °F 29.99 in WSW 6.0 mph 6.0 mph 68% 0.00 in 679.00 W/m2
16:42 63.0 °F 52.3 °F 29.99 in Calm   7.0 mph 68% 0.00 in 682.00 W/m2
16:47 62.9 °F 52.2 °F 29.99 in WSW 1.0 mph 2.0 mph 68% 0.00 in 679.00 W/m2
16:52 62.8 °F 52.1 °F 29.99 in Calm   3.0 mph 68% 0.00 in 615.00 W/m2
16:57 62.7 °F 52.4 °F 29.99 in Calm   1.0 mph 69% 0.00 in 603.00 W/m2
17:02 62.7 °F 52.4 °F 29.99 in West 3.0 mph 3.0 mph 69% 0.00 in 578.00 W/m2
17:07 62.8 °F 52.5 °F 29.99 in WSW 3.0 mph 6.0 mph 69% 0.00 in 552.00 W/m2
17:12 62.8 °F 52.1 °F 29.99 in West 3.0 mph 3.0 mph 68% 0.00 in 534.00 W/m2
17:17 62.7 °F 52.0 °F 29.99 in WSW 7.0 mph 7.0 mph 68% 0.00 in 517.00 W/m2
17:22 62.6 °F 52.3 °F 29.99 in Calm   2.0 mph 69% 0.00 in 197.00 W/m2
17:27 62.4 °F 52.1 °F 29.99 in Calm   4.0 mph 69% 0.00 in 468.00 W/m2
17:32 62.3 °F 52.0 °F 29.99 in Calm   1.0 mph 69% 0.00 in 455.00 W/m2
17:37 62.2 °F 51.9 °F 29.99 in Calm   3.0 mph 69% 0.00 in 424.00 W/m2
17:42 62.0 °F 52.1 °F 29.99 in WNW 4.0 mph 4.0 mph 70% 0.00 in 413.00 W/m2
17:47 61.8 °F 51.9 °F 29.99 in Calm     70% 0.00 in 392.00 W/m2
17:52 61.8 °F 51.9 °F 29.99 in WNW 3.0 mph 3.0 mph 70% 0.00 in 374.00 W/m2
17:57 61.7 °F 51.8 °F 29.99 in Calm   3.0 mph 70% 0.00 in 362.00 W/m2
18:02 61.7 °F 52.2 °F 29.99 in Calm   3.0 mph 71% 0.00 in 345.00 W/m2
18:07 61.7 °F 51.8 °F 29.99 in West 2.0 mph 5.0 mph 70% 0.00 in 320.00 W/m2
18:12 61.7 °F 51.8 °F 29.99 in Calm   2.0 mph 70% 0.00 in 299.00 W/m2
18:17 61.7 °F 51.8 °F 29.99 in Calm     70% 0.00 in 294.00 W/m2
18:22 61.6 °F 52.1 °F 29.99 in Calm   6.0 mph 71% 0.00 in 271.00 W/m2
18:28 61.6 °F 51.7 °F 29.99 in Calm   7.0 mph 70% 0.00 in 255.00 W/m2
18:33 61.6 °F 51.7 °F 29.99 in Calm   5.0 mph 70% 0.00 in 237.00 W/m2
18:38 61.5 °F 52.0 °F 29.99 in Calm     71% 0.00 in 221.00 W/m2
18:43 61.4 °F 52.3 °F 29.99 in Calm   3.0 mph 72% 0.00 in 204.00 W/m2
18:48 61.3 °F 52.2 °F 29.99 in Calm   6.0 mph 72% 0.00 in 190.00 W/m2
18:53 61.3 °F 52.6 °F 29.99 in WSW 1.0 mph 4.0 mph 73% 0.00 in 178.00 W/m2
18:58 61.2 °F 52.1 °F 29.99 in Calm     72% 0.00 in 160.00 W/m2
19:03 61.2 °F 52.1 °F 29.99 in Calm   4.0 mph 72% 0.00 in 141.00 W/m2
19:08 61.1 °F 52.0 °F 29.99 in Calm     72% 0.00 in 123.00 W/m2
19:13 61.1 °F 52.0 °F 29.99 in Calm     72% 0.00 in 111.00 W/m2
19:18 61.0 °F 52.3 °F 29.99 in Calm   1.0 mph 73% 0.00 in 93.00 W/m2
19:23 60.9 °F 51.8 °F 29.99 in Calm   5.0 mph 72% 0.00 in 77.00 W/m2
19:28 60.8 °F 52.1 °F 29.99 in Calm     73% 0.00 in 65.00 W/m2
19:33 60.5 °F 51.8 °F 29.99 in Calm   2.0 mph 73% 0.00 in 53.00 W/m2
19:38 60.4 °F 51.7 °F 29.99 in Calm     73% 0.00 in 44.00 W/m2
19:43 60.2 °F 51.5 °F 29.99 in Calm     73% 0.00 in 33.00 W/m2
19:48 59.9 °F 51.6 °F 29.99 in Calm     74% 0.00 in 28.00 W/m2
19:49 59.9 °F 51.6 °F 29.99 in Calm     74% 0.00 in 28.00 W/m2
19:54 59.6 °F 51.3 °F 30.00 in Calm     74% 0.00 in 21.00 W/m2
20:04 59.3 °F 51.4 °F 30.00 in Calm     75% 0.00 in 16.00 W/m2
20:09 59.0 °F 51.1 °F 30.00 in Calm     75% 0.00 in 12.00 W/m2
20:14 58.7 °F 50.8 °F 30.00 in Calm   3.0 mph 75% 0.00 in 9.00 W/m2
20:19 58.5 °F 51.0 °F 30.00 in Calm     76% 0.00 in 5.00 W/m2
20:24 58.2 °F 50.7 °F 30.00 in Calm   3.0 mph 76% 0.00 in 0.00 W/m2
20:29 58.1 °F 50.9 °F 30.00 in Calm     77% 0.00 in 0.00 W/m2
20:34 57.9 °F 50.7 °F 30.00 in Calm     77% 0.00 in 0.00 W/m2
20:39 57.8 °F 50.7 °F 30.01 in Calm     77% 0.00 in 0.00 W/m2
20:44 57.6 °F 50.5 °F 30.01 in Calm     77% 0.00 in 0.00 W/m2
20:45 57.6 °F 50.5 °F 30.01 in Calm     77% 0.00 in 0.00 W/m2
20:50 57.4 °F 50.6 °F 30.01 in Calm     78% 0.00 in 0.00 W/m2
20:55 57.2 °F 50.4 °F 30.01 in Calm     78% 0.00 in 0.00 W/m2
21:00 56.8 °F 50.4 °F 30.01 in Calm     79% 0.00 in 0.00 W/m2
21:05 56.5 °F 50.1 °F 30.01 in Calm     79% 0.00 in 0.00 W/m2
21:10 56.1 °F 49.7 °F 30.01 in Calm     79% 0.00 in 0.00 W/m2
21:15 55.9 °F 49.8 °F 30.02 in Calm     80% 0.00 in 0.00 W/m2
21:20 55.6 °F 49.5 °F 30.02 in Calm     80% 0.00 in 0.00 W/m2
21:25 55.5 °F 49.4 °F 30.02 in Calm     80% 0.00 in 0.00 W/m2
21:30 55.4 °F 49.7 °F 30.02 in Calm     81% 0.00 in 0.00 W/m2
21:35 55.3 °F 49.6 °F 30.02 in Calm     81% 0.00 in 0.00 W/m2
21:40 55.1 °F 49.4 °F 30.02 in Calm     81% 0.00 in 0.00 W/m2
21:45 55.0 °F 49.3 °F 30.02 in Calm     81% 0.00 in 0.00 W/m2
21:50 54.9 °F 49.2 °F 30.02 in Calm     81% 0.00 in 0.00 W/m2
21:55 54.8 °F 49.4 °F 30.02 in Calm     82% 0.00 in 0.00 W/m2
22:00 54.7 °F 49.3 °F 30.02 in Calm     82% 0.00 in 0.00 W/m2
22:05 54.6 °F 49.2 °F 30.02 in Calm     82% 0.00 in 0.00 W/m2
22:10 54.5 °F 49.1 °F 30.02 in Calm     82% 0.00 in 0.00 W/m2
22:15 54.4 °F 49.0 °F 30.02 in Calm     82% 0.00 in 0.00 W/m2
22:20 54.2 °F 48.8 °F 30.02 in Calm     82% 0.00 in 0.00 W/m2
22:25 54.1 °F 49.1 °F 30.02 in Calm     83% 0.00 in 0.00 W/m2
22:30 53.9 °F 48.9 °F 30.02 in Calm     83% 0.00 in 0.00 W/m2
22:35 53.8 °F 48.8 °F 30.02 in Calm     83% 0.00 in 0.00 W/m2
22:40 53.7 °F 48.7 °F 30.03 in Calm     83% 0.00 in 0.00 W/m2
22:45 53.6 °F 48.6 °F 30.03 in Calm     83% 0.00 in 0.00 W/m2
22:55 53.4 °F 48.7 °F 30.03 in Calm     84% 0.00 in 0.00 W/m2
23:00 53.2 °F 48.5 °F 30.03 in Calm     84% 0.00 in 0.00 W/m2
23:05 53.1 °F 48.4 °F 30.03 in Calm     84% 0.00 in 0.00 W/m2
23:11 53.0 °F 48.3 °F 30.03 in Calm     84% 0.00 in 0.00 W/m2
23:16 52.9 °F 48.2 °F 30.03 in Calm     84% 0.00 in 0.00 W/m2
23:21 52.7 °F 48.3 °F 30.03 in Calm     85% 0.00 in 0.00 W/m2
23:26 52.6 °F 48.2 °F 30.03 in Calm     85% 0.00 in 0.00 W/m2
23:31 52.6 °F 48.2 °F 30.03 in Calm     85% 0.00 in 0.00 W/m2
23:36 52.5 °F 48.1 °F 30.03 in Calm     85% 0.00 in 0.00 W/m2
23:46 52.4 °F 48.0 °F 30.03 in Calm     85% 0.00 in 0.00 W/m2
23:51 52.4 °F 48.0 °F 30.03 in Calm     85% 0.00 in 0.00 W/m2
23:56 52.3 °F 47.9 °F 30.03 in Calm     85% 0.00 in 0.00 W/m2
Foresthill Weather
 WU-history PHP script courtesy of   Juneau County Weather.
powered by Cumulus v1.9.3 (1059)
Ambient Weather VWS v14.00
Top Contact Website Map Copyright © 2007 - 2018 Foresthillweather.com Never base important decisions on this or any weather information obtained from the Internet